createdAt,value
2023-01-02T00:03:06.568Z,0
2023-01-02T00:03:47.039Z,0
2023-01-02T00:04:27.461Z,0
2023-01-02T00:05:07.987Z,0
2023-01-02T00:05:48.543Z,0
2023-01-02T00:08:27.131Z,0
2023-01-02T00:09:08.573Z,0
2023-01-02T00:09:49.238Z,0
2023-01-02T00:10:29.666Z,0
2023-01-02T00:14:44.502Z,0
2023-01-02T00:15:25.033Z,0
2023-01-02T00:16:05.599Z,0
2023-01-02T00:16:46.151Z,0
2023-01-02T00:21:41.835Z,0
2023-01-02T00:22:22.333Z,0
2023-01-02T00:23:02.868Z,0
2023-01-02T00:23:43.426Z,0
2023-01-02T00:25:46.374Z,0
2023-01-02T00:28:19.876Z,0
2023-01-02T00:29:00.376Z,0
2023-01-02T00:29:40.864Z,0
2023-01-02T00:30:22.025Z,0
2023-01-02T00:33:04.645Z,0
2023-01-02T00:33:45.196Z,0
2023-01-02T00:34:25.680Z,0
2023-01-02T00:35:06.163Z,0
2023-01-02T00:35:46.681Z,0
2023-01-02T00:36:27.205Z,0
2023-01-02T00:37:07.739Z,0
2023-01-02T00:37:48.972Z,0
2023-01-02T00:38:29.491Z,0
2023-01-02T00:43:54.683Z,0
2023-01-02T00:44:35.735Z,0
2023-01-02T00:45:16.251Z,0
2023-01-02T00:45:56.759Z,0
2023-01-02T00:46:37.327Z,0
2023-01-02T00:47:17.802Z,0
2023-01-02T00:47:58.364Z,0
2023-01-02T00:48:38.840Z,0
2023-01-02T00:49:19.347Z,0
2023-01-02T00:54:55.165Z,0
2023-01-02T00:55:35.600Z,0
2023-01-02T00:56:16.122Z,0
2023-01-02T00:56:56.624Z,0
2023-01-02T01:00:59.988Z,0
2023-01-02T01:01:40.577Z,0
2023-01-02T01:02:21.048Z,0
2023-01-02T01:03:01.554Z,0
2023-01-02T01:03:42.021Z,0
2023-01-02T01:04:22.572Z,0
2023-01-02T01:05:03.087Z,0
2023-01-02T01:05:43.613Z,0
2023-01-02T01:06:24.124Z,0
2023-01-02T01:07:04.672Z,0
2023-01-02T01:13:50.117Z,0
2023-01-02T01:14:30.678Z,0
2023-01-02T01:15:11.206Z,0
2023-01-02T01:15:51.868Z,0
2023-01-02T01:16:32.370Z,0
2023-01-02T01:17:12.861Z,0
2023-01-02T01:17:53.437Z,0
2023-01-02T01:18:33.993Z,0
2023-01-02T01:19:14.546Z,0
2023-01-02T01:26:00.122Z,0
2023-01-02T01:26:40.599Z,0
2023-01-02T01:27:21.136Z,0
2023-01-02T01:29:59.644Z,0
2023-01-02T01:30:40.289Z,0
2023-01-02T01:31:20.878Z,0
2023-01-02T01:32:01.516Z,0
2023-01-02T01:36:04.726Z,0
2023-01-02T01:36:45.245Z,0
2023-01-02T01:37:26.627Z,0
2023-01-02T01:38:08.122Z,0
2023-01-02T01:38:48.640Z,0
2023-01-02T01:44:14.648Z,0
2023-01-02T01:44:55.174Z,0
2023-01-02T01:45:35.745Z,0
2023-01-02T01:46:17.079Z,0
2023-01-02T01:46:57.537Z,0
2023-01-02T01:47:38.064Z,0
2023-01-02T01:48:18.588Z,0
2023-01-02T01:48:59.130Z,0
2023-01-02T01:55:46.184Z,0
2023-01-02T01:56:26.738Z,0
2023-01-02T01:57:07.281Z,0
2023-01-02T01:57:47.811Z,0
2023-01-02T01:58:28.311Z,0
2023-01-02T01:59:08.837Z,0
2023-01-02T02:03:23.565Z,0
2023-01-02T02:04:04.946Z,0
2023-01-02T02:04:46.163Z,0
2023-01-02T02:05:26.577Z,0
2023-01-02T02:07:28.872Z,0
2023-01-02T02:08:09.332Z,0
2023-01-02T02:08:49.885Z,0
2023-01-02T02:09:30.410Z,0
2023-01-02T02:10:10.920Z,0
2023-01-02T02:10:51.433Z,0
2023-01-02T02:11:31.970Z,0
2023-01-02T02:14:10.974Z,0
2023-01-02T02:14:51.485Z,0
2023-01-02T02:15:32.006Z,0
2023-01-02T02:16:12.600Z,0
2023-01-02T02:20:15.800Z,0
2023-01-02T02:20:56.205Z,0
2023-01-02T02:21:36.796Z,0
2023-01-02T02:22:17.498Z,0
2023-01-02T02:22:58.048Z,0
2023-01-02T02:23:38.580Z,0
2023-01-02T02:24:19.130Z,0
2023-01-02T02:24:59.611Z,0
2023-01-02T02:25:40.226Z,0
2023-01-02T02:29:14.327Z,0
2023-01-02T02:29:54.820Z,0
2023-01-02T02:30:35.346Z,0
2023-01-02T02:31:15.972Z,0
2023-01-02T02:33:19.028Z,0
2023-01-02T02:33:59.555Z,0
2023-01-02T02:34:40.080Z,0
2023-01-02T02:35:20.649Z,0
2023-01-02T02:36:01.155Z,0
2023-01-02T02:36:41.661Z,0
2023-01-02T02:37:22.236Z,0
2023-01-02T02:38:02.830Z,0
2023-01-02T02:38:43.331Z,0
2023-01-02T02:39:23.828Z,0
2023-01-02T02:46:09.053Z,0
2023-01-02T02:46:49.519Z,0
2023-01-02T02:47:30.033Z,0
2023-01-02T02:48:10.577Z,0
2023-01-02T02:48:51.847Z,0
2023-01-02T02:49:32.389Z,0
2023-01-02T02:50:12.985Z,0
2023-01-02T02:50:53.551Z,0
2023-01-02T02:55:50.275Z,0
2023-01-02T02:56:30.784Z,0
2023-01-02T02:57:11.293Z,0
2023-01-02T02:57:51.821Z,0
2023-01-02T03:01:55.240Z,0
2023-01-02T03:02:36.301Z,0
2023-01-02T03:05:14.713Z,0
2023-01-02T03:05:55.231Z,0
2023-01-02T03:06:36.391Z,0
2023-01-02T03:07:16.937Z,0
2023-01-02T03:10:39.584Z,0
2023-01-02T03:11:20.142Z,0
2023-01-02T03:12:00.656Z,0
2023-01-02T03:12:42.366Z,0
2023-01-02T03:13:22.898Z,0
2023-01-02T03:14:03.415Z,0
2023-01-02T03:14:43.972Z,0
2023-01-02T03:17:37.551Z,0
2023-01-02T03:18:18.058Z,0
2023-01-02T03:18:58.586Z,0
2023-01-02T03:19:39.138Z,0
2023-01-02T03:24:35.972Z,0
2023-01-02T03:25:16.486Z,0
2023-01-02T03:25:57.029Z,0
2023-01-02T03:26:37.556Z,0
2023-01-02T03:28:40.648Z,0
2023-01-02T03:29:21.217Z,0
2023-01-02T03:30:01.757Z,0
2023-01-02T03:30:42.326Z,0
2023-01-02T03:31:22.830Z,0
2023-01-02T03:32:03.404Z,0
2023-01-02T03:32:44.080Z,0
2023-01-02T03:33:24.586Z,0
2023-01-02T03:34:05.320Z,0
2023-01-02T03:36:18.457Z,0
2023-01-02T03:36:59.104Z,0
2023-01-02T03:37:39.734Z,0
2023-01-02T03:38:20.317Z,0
2023-01-02T03:42:24.262Z,0
2023-01-02T03:43:05.757Z,0
2023-01-02T03:45:44.543Z,0
2023-01-02T03:46:25.118Z,0
2023-01-02T03:47:05.638Z,0
2023-01-02T03:47:46.285Z,0
2023-01-02T03:51:49.495Z,0
2023-01-02T03:52:30.075Z,0
2023-01-02T03:53:10.573Z,0
2023-01-02T03:53:52.369Z,0
2023-01-02T03:54:32.818Z,0
2023-01-02T03:55:13.375Z,0
2023-01-02T03:57:57.190Z,0
2023-01-02T03:58:33.048Z,0
2023-01-02T03:59:13.559Z,0
2023-01-02T03:59:54.114Z,0
2023-01-02T04:03:57.475Z,0
2023-01-02T04:04:37.924Z,0
2023-01-02T04:05:18.511Z,0
2023-01-02T04:05:59.031Z,0
2023-01-02T04:06:39.504Z,0
2023-01-02T04:07:20.053Z,0
2023-01-02T04:08:00.800Z,0
2023-01-02T04:08:41.134Z,0
2023-01-02T04:09:21.710Z,0
2023-01-02T04:16:34.290Z,0
2023-01-02T04:17:14.748Z,0
2023-01-02T04:17:55.301Z,0
2023-01-02T04:18:36.693Z,0
2023-01-02T04:21:58.971Z,0
2023-01-02T04:22:39.485Z,0
2023-01-02T04:23:20.100Z,0
2023-01-02T04:24:00.516Z,0
2023-01-02T04:24:41.071Z,0
2023-01-02T04:25:21.623Z,0
2023-01-02T04:26:02.103Z,0
2023-01-02T04:28:15.141Z,0
2023-01-02T04:28:55.663Z,0
2023-01-02T04:29:36.220Z,0
2023-01-02T04:30:16.778Z,0
2023-01-02T04:34:19.895Z,0
2023-01-02T04:35:00.411Z,0
2023-01-02T04:35:40.951Z,0
2023-01-02T04:36:21.445Z,0
2023-01-02T04:37:01.979Z,0
2023-01-02T04:37:42.491Z,0
2023-01-02T04:38:23.012Z,0
2023-01-02T04:39:03.556Z,0
2023-01-02T04:39:44.078Z,0
2023-01-02T04:45:50.160Z,0
2023-01-02T04:46:30.716Z,0
2023-01-02T04:47:13.450Z,0
2023-01-02T04:47:51.718Z,0
2023-01-02T04:50:30.168Z,0
2023-01-02T04:51:11.376Z,0
2023-01-02T04:51:52.689Z,0
2023-01-02T04:52:36.825Z,0
2023-01-02T04:54:34.966Z,0
2023-01-02T04:55:15.365Z,0
2023-01-02T04:55:55.876Z,0
2023-01-02T04:56:36.398Z,0
2023-01-02T04:57:16.943Z,0
2023-01-02T04:59:55.415Z,0
2023-01-02T05:00:35.933Z,0
2023-01-02T05:01:16.802Z,0
2023-01-02T05:01:57.057Z,0
2023-01-02T05:06:12.861Z,0
2023-01-02T05:06:53.347Z,0
2023-01-02T05:07:33.872Z,0
2023-01-02T05:08:16.468Z,0
2023-01-02T05:12:17.658Z,0
2023-01-02T05:12:58.149Z,0
2023-01-02T05:13:38.650Z,0
2023-01-02T05:14:19.377Z,0
2023-01-02T05:14:59.866Z,0
2023-01-02T05:15:40.552Z,0
2023-01-02T05:16:21.093Z,0
2023-01-02T05:17:01.574Z,0
2023-01-02T05:17:42.234Z,0
2023-01-02T05:19:55.332Z,0
2023-01-02T05:20:36.943Z,0
2023-01-02T05:21:17.484Z,0
2023-01-02T05:21:58.838Z,0
2023-01-02T05:24:11.861Z,0
2023-01-02T05:24:52.408Z,0
2023-01-02T05:25:32.918Z,0
2023-01-02T05:26:13.373Z,0
2023-01-02T05:29:36.848Z,0
2023-01-02T05:30:17.382Z,0
2023-01-02T05:30:57.869Z,0
2023-01-02T05:31:38.489Z,0
2023-01-02T05:32:19.585Z,0
2023-01-02T05:33:00.149Z,0
2023-01-02T05:33:40.632Z,0
2023-01-02T05:34:21.088Z,0
2023-01-02T05:41:19.078Z,0
2023-01-02T05:41:59.638Z,0
2023-01-02T05:42:41.180Z,0
2023-01-02T05:43:21.708Z,0
2023-01-02T05:46:04.553Z,0
2023-01-02T05:46:46.041Z,0
2023-01-02T05:47:26.621Z,0
2023-01-02T05:49:39.667Z,0
2023-01-02T05:50:20.183Z,0
2023-01-02T05:51:00.700Z,0
2023-01-02T05:51:41.237Z,0
2023-01-02T05:54:35.311Z,0
2023-01-02T05:55:15.850Z,0
2023-01-02T05:55:56.455Z,0
2023-01-02T05:56:37.241Z,0
2023-01-02T06:00:00.088Z,0
2023-01-02T06:00:40.656Z,0
2023-01-02T06:01:21.160Z,0
2023-01-02T06:02:01.741Z,0
2023-01-02T06:02:47.613Z,0
2023-01-02T06:04:55.239Z,0
2023-01-02T06:05:35.767Z,0
2023-01-02T06:06:16.268Z,0
2023-01-02T06:06:56.789Z,0
2023-01-02T06:10:59.884Z,0
2023-01-02T06:11:40.533Z,0
2023-01-02T06:12:20.885Z,0
2023-01-02T06:13:01.404Z,0
2023-01-02T06:13:41.927Z,0
2023-01-02T06:14:22.462Z,0
2023-01-02T06:15:02.984Z,0
2023-01-02T06:15:44.007Z,0
2023-01-02T06:18:22.482Z,0
2023-01-02T06:19:03.024Z,0
2023-01-02T06:19:46.137Z,0
2023-01-02T06:20:24.109Z,0
2023-01-02T06:24:27.350Z,0
2023-01-02T06:25:07.903Z,0
2023-01-02T06:25:48.436Z,0
2023-01-02T06:26:34.459Z,0
2023-01-02T06:27:09.560Z,0
2023-01-02T06:27:50.096Z,0
2023-01-02T06:28:30.649Z,0
2023-01-02T06:29:11.199Z,0
2023-01-02T06:29:51.748Z,0
2023-01-02T06:33:25.937Z,0
2023-01-02T06:34:06.472Z,0
2023-01-02T06:34:47.013Z,0
2023-01-02T06:35:27.567Z,0
2023-01-02T06:38:10.553Z,0
2023-01-02T06:38:51.084Z,0
2023-01-02T06:39:31.596Z,0
2023-01-02T06:40:12.167Z,0
2023-01-02T06:40:52.695Z,0
2023-01-02T06:41:34.056Z,0
2023-01-02T06:42:15.500Z,0
2023-01-02T06:45:50.167Z,0
2023-01-02T06:46:30.679Z,0
2023-01-02T06:47:11.200Z,0
2023-01-02T06:47:52.390Z,0
2023-01-02T06:51:15.781Z,0
2023-01-02T06:51:56.293Z,0
2023-01-02T06:52:38.523Z,0
2023-01-02T06:54:45.601Z,0
2023-01-02T06:55:26.114Z,0
2023-01-02T06:56:06.668Z,0
2023-01-02T06:56:47.229Z,0
2023-01-02T06:57:27.789Z,0
2023-01-02T06:58:11.225Z,0
2023-01-02T06:58:48.858Z,0
2023-01-02T06:59:29.445Z,0
2023-01-02T07:06:14.758Z,0
2023-01-02T07:06:55.282Z,0
2023-01-02T07:09:33.744Z,0
2023-01-02T07:10:14.260Z,0
2023-01-02T07:10:54.820Z,0
2023-01-02T07:11:35.345Z,0
2023-01-02T07:15:38.507Z,0
2023-01-02T07:16:19.167Z,0
2023-01-02T07:16:59.643Z,0
2023-01-02T07:17:40.744Z,0
2023-01-02T07:18:21.271Z,0
2023-01-02T07:20:59.727Z,5
2023-01-02T07:21:40.233Z,5
2023-01-02T07:22:20.782Z,5
2023-01-02T07:23:01.313Z,5
2023-01-02T07:26:24.760Z,5
2023-01-02T07:27:05.279Z,5
2023-01-02T07:27:45.811Z,5
2023-01-02T07:28:26.353Z,5
2023-01-02T07:29:07.499Z,5
2023-01-02T07:29:48.823Z,5
2023-01-02T07:35:14.813Z,5
2023-01-02T07:35:55.331Z,5
2023-01-02T07:36:35.861Z,5
2023-01-02T07:37:16.373Z,5
2023-01-02T07:37:56.919Z,5
2023-01-02T07:38:37.434Z,5
2023-01-02T07:39:17.962Z,5
2023-01-02T07:39:58.472Z,10
2023-01-02T07:40:39.028Z,10
2023-01-02T07:45:36.246Z,10
2023-01-02T07:46:17.255Z,15
2023-01-02T07:47:00.503Z,15
2023-01-02T07:49:39.919Z,15
2023-01-02T07:50:20.451Z,15
2023-01-02T07:51:00.963Z,15
2023-01-02T07:51:41.488Z,15
2023-01-02T07:55:44.610Z,25
2023-01-02T07:56:25.152Z,25
2023-01-02T07:57:05.671Z,25
2023-01-02T07:59:44.113Z,30
2023-01-02T08:00:24.641Z,30
2023-01-02T08:01:07.199Z,30
2023-01-02T08:01:47.646Z,35
2023-01-02T08:03:49.208Z,35
2023-01-02T08:04:29.704Z,35
2023-01-02T08:05:10.209Z,35
2023-01-02T08:05:50.729Z,35
2023-01-02T08:06:31.266Z,40
2023-01-02T08:07:11.787Z,40
2023-01-02T08:07:52.329Z,40
2023-01-02T08:08:32.862Z,40
2023-01-02T08:09:13.380Z,40
2023-01-02T08:16:39.311Z,50
2023-01-02T08:17:19.682Z,50
2023-01-02T08:18:00.208Z,50
2023-01-02T08:18:40.740Z,50
2023-01-02T08:19:21.292Z,55
2023-01-02T08:20:07.418Z,55
2023-01-02T08:20:42.375Z,55
2023-01-02T08:21:22.889Z,55
2023-01-02T08:22:03.403Z,55
2023-01-02T08:29:40.657Z,60
2023-01-02T08:30:21.196Z,60
2023-01-02T08:31:01.760Z,60
2023-01-02T08:31:43.944Z,60
2023-01-02T08:35:45.417Z,65
2023-01-02T08:36:25.949Z,70
2023-01-02T08:37:06.454Z,70
2023-01-02T08:37:50.565Z,75
2023-01-02T08:38:27.501Z,80
2023-01-02T08:39:08.081Z,85
2023-01-02T08:39:48.635Z,85
2023-01-02T08:40:29.173Z,85
2023-01-02T08:41:10.322Z,90
2023-01-02T08:45:15.406Z,110
2023-01-02T08:45:55.975Z,110
2023-01-02T08:46:42.157Z,110
2023-01-02T08:47:16.992Z,110
2023-01-02T08:47:57.521Z,110
2023-01-02T08:48:38.050Z,105
2023-01-02T08:49:18.591Z,105
2023-01-02T08:49:59.168Z,105
2023-01-02T08:50:39.720Z,110
2023-01-02T08:51:20.268Z,110
2023-01-02T08:56:17.685Z,115
2023-01-02T08:56:59.669Z,110
2023-01-02T08:57:40.219Z,110
2023-01-02T08:58:22.161Z,110
2023-01-02T09:00:41.225Z,105
2023-01-02T09:01:21.914Z,100
2023-01-02T09:02:02.289Z,100
2023-01-02T09:02:42.913Z,95
2023-01-02T09:06:45.931Z,95
2023-01-02T09:07:26.972Z,95
2023-01-02T09:08:07.524Z,95
2023-01-02T09:08:48.039Z,95
2023-01-02T09:09:28.551Z,95
2023-01-02T09:10:09.086Z,95
2023-01-02T09:10:49.571Z,95
2023-01-02T09:11:30.093Z,95
2023-01-02T09:12:10.611Z,95
2023-01-02T09:19:10.515Z,95
2023-01-02T09:19:51.674Z,90
2023-01-02T09:20:32.277Z,90
2023-01-02T09:21:14.499Z,85
2023-01-02T09:23:44.596Z,85
2023-01-02T09:24:25.118Z,85
2023-01-02T09:25:05.624Z,90
2023-01-02T09:25:46.124Z,95
2023-01-02T09:28:40.398Z,100
2023-01-02T09:29:21.417Z,100
2023-01-02T09:30:03.960Z,105
2023-01-02T09:30:44.521Z,110
2023-01-02T09:33:05.379Z,110
2023-01-02T09:33:47.542Z,100
2023-01-02T09:34:31.322Z,90
2023-01-02T09:35:11.899Z,85
2023-01-02T09:37:24.934Z,70
2023-01-02T09:38:05.475Z,70
2023-01-02T09:38:46.032Z,65
2023-01-02T09:39:32.083Z,65
2023-01-02T09:43:31.767Z,75
2023-01-02T09:44:12.295Z,75
2023-01-02T09:44:52.834Z,70
2023-01-02T09:45:33.384Z,70
2023-01-02T09:46:13.966Z,70
2023-01-02T09:46:54.505Z,70
2023-01-02T09:50:30.274Z,85
2023-01-02T09:51:11.520Z,80
2023-01-02T09:51:53.767Z,80
2023-01-02T09:52:34.280Z,75
2023-01-02T09:54:47.489Z,85
2023-01-02T09:55:27.998Z,85
2023-01-02T09:56:10.388Z,85
2023-01-02T09:56:50.903Z,90
2023-01-02T09:58:52.516Z,80
2023-01-02T09:59:33.041Z,80
2023-01-02T10:00:13.538Z,80
2023-01-02T10:00:54.116Z,80
2023-01-02T10:01:34.662Z,80
2023-01-02T10:02:15.154Z,85
2023-01-02T10:02:55.765Z,85
2023-01-02T10:03:36.233Z,85
2023-01-02T10:04:16.765Z,85
2023-01-02T10:09:42.086Z,115
2023-01-02T10:10:22.711Z,125
2023-01-02T10:11:03.147Z,130
2023-01-02T10:11:43.677Z,130
2023-01-02T10:12:24.193Z,135
2023-01-02T10:13:05.309Z,145
2023-01-02T10:14:20.726Z,140
2023-01-02T10:14:33.841Z,135
2023-01-02T10:15:06.909Z,135
2023-01-02T10:19:21.796Z,125
2023-01-02T10:20:02.301Z,120
2023-01-02T10:20:44.882Z,120
2023-01-02T10:21:26.165Z,120
2023-01-02T10:23:40.452Z,115
2023-01-02T10:24:21.154Z,115
2023-01-02T10:25:01.740Z,115
2023-01-02T10:25:43.204Z,110
2023-01-02T10:28:53.913Z,95
2023-01-02T10:29:38.263Z,95
2023-01-02T10:30:20.300Z,95
2023-01-02T10:32:59.464Z,85
2023-01-02T10:33:41.546Z,85
2023-01-02T10:34:22.781Z,85
2023-01-02T10:35:03.424Z,85
2023-01-02T10:37:37.495Z,95
2023-01-02T10:38:18.027Z,95
2023-01-02T10:38:58.590Z,100
2023-01-02T10:39:39.157Z,105
2023-01-02T10:42:20.756Z,100
2023-01-02T10:43:03.871Z,105
2023-01-02T10:43:46.055Z,120
2023-01-02T10:44:28.732Z,120
2023-01-02T10:46:57.527Z,115
2023-01-02T10:47:38.032Z,120
2023-01-02T10:48:18.545Z,120
2023-01-02T10:48:59.091Z,130
2023-01-02T10:53:02.325Z,165
2023-01-02T10:53:42.836Z,180
2023-01-02T10:54:23.464Z,175
2023-01-02T10:55:04.036Z,160
2023-01-02T10:55:45.284Z,135
2023-01-02T10:56:25.787Z,120
2023-01-02T11:03:52.652Z,110
2023-01-02T11:04:33.225Z,115
2023-01-02T11:05:13.771Z,115
2023-01-02T11:05:54.312Z,120
2023-01-02T11:06:39.123Z,135
2023-01-02T11:07:15.409Z,140
2023-01-02T11:07:55.964Z,140
2023-01-02T11:08:36.533Z,140
2023-01-02T11:09:17.048Z,135
2023-01-02T11:14:42.159Z,135
2023-01-02T11:15:22.689Z,135
2023-01-02T11:16:03.249Z,140
2023-01-02T11:16:43.771Z,135
2023-01-02T11:17:24.290Z,140
2023-01-02T11:18:04.840Z,145
2023-01-02T11:18:45.494Z,145
2023-01-02T11:19:29.756Z,145
2023-01-02T11:20:06.660Z,150
2023-01-02T11:20:47.191Z,150
2023-01-02T11:26:52.181Z,165
2023-01-02T11:27:33.284Z,160
2023-01-02T11:28:13.804Z,150
2023-01-02T11:28:54.355Z,145
2023-01-02T11:29:34.907Z,140
2023-01-02T11:30:15.424Z,125
2023-01-02T11:30:56.039Z,130
2023-01-02T11:31:36.591Z,145
2023-01-02T11:32:17.094Z,145
2023-01-02T11:35:10.412Z,145
2023-01-02T11:35:50.971Z,145
2023-01-02T11:36:31.611Z,145
2023-01-02T11:37:12.109Z,155
2023-01-02T11:41:15.383Z,165
2023-01-02T11:41:56.495Z,155
2023-01-02T11:44:36.464Z,125
2023-01-02T11:45:17.025Z,130
2023-01-02T11:45:57.581Z,130
2023-01-02T11:46:38.072Z,130
2023-01-02T11:49:31.853Z,140
2023-01-02T11:50:12.409Z,150
2023-01-02T11:50:52.997Z,155
2023-01-02T11:51:33.632Z,160
2023-01-02T11:54:56.502Z,185
2023-01-02T11:55:37.092Z,180
2023-01-02T11:56:17.593Z,190
2023-01-02T11:56:58.142Z,190
2023-01-02T11:57:38.720Z,195
2023-01-02T11:58:19.237Z,195
2023-01-02T11:59:00.332Z,190
2023-01-02T12:01:14.105Z,175
2023-01-02T12:01:54.741Z,170
2023-01-02T12:02:36.137Z,170
2023-01-02T12:03:18.572Z,170
2023-01-02T12:05:31.163Z,170
2023-01-02T12:06:11.697Z,170
2023-01-02T12:06:52.228Z,170
2023-01-02T12:07:32.729Z,170
2023-01-02T12:10:56.244Z,190
2023-01-02T12:13:36.491Z,190
2023-01-02T12:14:17.585Z,175
2023-01-02T12:14:58.108Z,160
2023-01-02T12:15:38.639Z,150
2023-01-02T12:19:01.269Z,160
2023-01-02T12:19:41.817Z,165
2023-01-02T12:20:22.374Z,175
2023-01-02T12:21:02.920Z,185
2023-01-02T12:21:43.481Z,190
2023-01-02T12:22:24.007Z,195
2023-01-02T12:28:05.882Z,190
2023-01-02T12:28:47.586Z,155
2023-01-02T12:31:17.101Z,95
2023-01-02T12:32:01.298Z,95
2023-01-02T12:32:38.094Z,110
2023-01-02T12:33:18.626Z,135
2023-01-02T12:35:22.142Z,200
2023-01-02T12:36:03.529Z,200
2023-01-02T12:36:44.045Z,200
2023-01-02T12:37:24.569Z,190
2023-01-02T12:38:05.131Z,185
2023-01-02T12:38:45.861Z,185
2023-01-02T12:42:00.433Z,130
2023-01-02T12:42:37.144Z,130
2023-01-02T12:43:17.661Z,130
2023-01-02T12:43:58.168Z,135
2023-01-02T12:48:01.430Z,120
2023-01-02T12:48:41.935Z,125
2023-01-02T12:49:22.491Z,130
2023-01-02T12:50:02.999Z,130
2023-01-02T12:50:48.551Z,130
2023-01-02T12:51:24.062Z,130
2023-01-02T12:52:04.666Z,130
2023-01-02T12:52:45.233Z,135
2023-01-02T12:57:41.105Z,130
2023-01-02T12:58:21.638Z,125
2023-01-02T12:59:02.182Z,125
2023-01-02T12:59:42.680Z,120
2023-01-02T13:02:53.422Z,80
2023-01-02T13:03:40.866Z,75
2023-01-02T13:06:58.987Z,70
2023-01-02T13:07:39.565Z,75
2023-01-02T13:08:20.097Z,80
2023-01-02T13:09:00.614Z,80
2023-01-02T13:13:03.739Z,60
2023-01-02T13:13:44.233Z,60
2023-01-02T13:14:24.770Z,60
2023-01-02T13:15:05.941Z,55
2023-01-02T13:15:46.465Z,60
2023-01-02T13:16:27.020Z,60
2023-01-02T13:17:07.579Z,60
2023-01-02T13:17:48.091Z,60
2023-01-02T13:18:28.596Z,60
2023-01-02T13:22:02.792Z,45
2023-01-02T13:22:43.315Z,45
2023-01-02T13:23:23.876Z,40
2023-01-02T13:24:04.353Z,40
2023-01-02T13:28:35.431Z,40
2023-01-02T13:29:15.853Z,40
2023-01-02T13:29:56.429Z,40
2023-01-02T13:30:37.079Z,40
2023-01-02T13:33:32.512Z,40
2023-01-02T13:34:13.020Z,35
2023-01-02T13:34:54.284Z,35
2023-01-02T13:35:34.841Z,35
2023-01-02T13:36:17.493Z,35
2023-01-02T13:36:55.979Z,35
2023-01-02T13:37:36.529Z,35
2023-01-02T13:38:17.045Z,35
2023-01-02T13:38:57.614Z,30
2023-01-02T13:39:38.159Z,30
2023-01-02T13:40:18.704Z,30
2023-01-02T13:40:59.275Z,30
2023-01-02T13:41:39.796Z,30
2023-01-02T13:42:20.355Z,35
2023-01-02T13:47:45.613Z,40
2023-01-02T13:48:26.131Z,40
2023-01-02T13:49:06.669Z,40
2023-01-02T13:49:47.221Z,40
2023-01-02T13:50:28.382Z,45
2023-01-02T13:51:08.878Z,45
2023-01-02T13:51:49.415Z,45
2023-01-02T13:52:29.968Z,45
2023-01-02T13:59:41.327Z,25
2023-01-02T13:59:55.836Z,25
2023-01-02T14:00:36.438Z,25
2023-01-02T14:01:16.999Z,25
2023-01-02T14:01:58.202Z,25
2023-01-02T14:02:38.802Z,25
2023-01-02T14:03:19.226Z,20
2023-01-02T14:05:32.309Z,25
2023-01-02T14:06:12.834Z,25
2023-01-02T14:06:54.171Z,25
2023-01-02T14:07:33.903Z,25
2023-01-02T14:11:55.172Z,30
2023-01-02T14:12:17.604Z,30
2023-01-02T14:12:58.196Z,30
2023-01-02T14:13:39.406Z,25
2023-01-02T14:14:19.946Z,30
2023-01-02T14:15:00.448Z,30
2023-01-02T14:15:40.988Z,35
2023-01-02T14:18:19.429Z,35
2023-01-02T14:18:59.950Z,35
2023-01-02T14:19:40.485Z,35
2023-01-02T14:20:21.000Z,35
2023-01-02T14:24:27.391Z,20
2023-01-02T14:25:04.684Z,20
2023-01-02T14:25:45.224Z,20
2023-01-02T14:26:25.767Z,20
2023-01-02T14:27:07.009Z,25
2023-01-02T14:27:47.560Z,25
2023-01-02T14:28:28.127Z,25
2023-01-02T14:29:08.648Z,25
2023-01-02T14:35:14.464Z,20
2023-01-02T14:35:55.966Z,20
2023-01-02T14:36:36.558Z,20
2023-01-02T14:37:17.036Z,25
2023-01-02T14:37:57.553Z,25
2023-01-02T14:38:39.028Z,25
2023-01-02T14:45:24.443Z,10
2023-01-02T14:46:05.085Z,10
2023-01-02T14:46:45.516Z,10
2023-01-02T14:47:26.705Z,10
2023-01-02T14:48:07.246Z,10
2023-01-02T14:48:47.744Z,15
2023-01-02T14:51:27.947Z,15
2023-01-02T14:52:09.322Z,15
2023-01-02T14:52:49.867Z,10
2023-01-02T14:53:30.518Z,10
2023-01-02T14:55:45.705Z,5
2023-01-02T14:56:26.276Z,5
2023-01-02T14:57:08.793Z,5
2023-01-02T14:57:50.950Z,5
2023-01-02T14:58:32.326Z,0
2023-01-02T14:59:20.326Z,0
2023-01-02T15:01:42.705Z,0
2023-01-02T15:02:11.333Z,0
2023-01-02T15:02:52.052Z,0
2023-01-02T15:04:19.883Z,0
2023-01-02T15:05:02.702Z,5
2023-01-02T15:07:10.425Z,5
2023-01-02T15:07:51.685Z,5
2023-01-02T15:08:33.742Z,5
2023-01-02T15:11:58.814Z,5
2023-01-02T15:12:40.189Z,5
2023-01-02T15:13:32.242Z,5
2023-01-02T15:14:16.798Z,5
2023-01-02T15:16:19.497Z,5
2023-01-02T15:17:00.620Z,5
2023-01-02T15:17:43.607Z,5
2023-01-02T15:20:31.155Z,0
2023-01-02T15:21:11.714Z,0
2023-01-02T15:21:52.243Z,0
2023-01-02T15:22:33.543Z,0
2023-01-02T15:23:58.898Z,0
2023-01-02T15:24:41.352Z,0
2023-01-02T15:25:22.568Z,0
2023-01-02T15:26:50.320Z,0
2023-01-02T15:27:30.778Z,0
2023-01-02T15:30:18.812Z,0
2023-01-02T15:31:02.845Z,0
2023-01-02T15:33:49.074Z,0
2023-01-02T15:34:29.619Z,0
2023-01-02T15:35:10.205Z,0
2023-01-02T15:35:52.228Z,0
2023-01-02T15:36:33.702Z,0
2023-01-02T15:38:01.050Z,0
2023-01-02T15:38:42.836Z,0
2023-01-02T15:40:49.126Z,0
2023-01-02T15:41:30.288Z,0
2023-01-02T15:42:12.432Z,0
2023-01-02T15:45:40.730Z,0
2023-01-02T15:47:13.842Z,0
2023-01-02T15:49:21.305Z,0
2023-01-02T15:50:02.374Z,0
2023-01-02T15:52:09.740Z,0
2023-01-02T15:52:50.304Z,0
2023-01-02T15:53:39.260Z,0
2023-01-02T15:55:49.612Z,0
2023-01-02T15:56:31.071Z,0
2023-01-02T15:57:12.762Z,0
2023-01-02T15:58:41.839Z,0
2023-01-02T15:59:29.206Z,0
2023-01-02T16:00:11.290Z,0
2023-01-02T16:01:40.617Z,0
2023-01-02T16:02:22.745Z,0
2023-01-02T16:05:50.034Z,0
2023-01-02T16:06:32.219Z,0
2023-01-02T16:08:01.706Z,0
2023-01-02T16:09:30.752Z,0
2023-01-02T16:10:13.720Z,0
2023-01-02T16:11:39.388Z,0
2023-01-02T16:12:20.943Z,0
2023-01-02T16:13:02.253Z,0
2023-01-02T16:15:31.004Z,0
2023-01-02T16:16:15.199Z,0
2023-01-02T16:16:52.303Z,0
2023-01-02T16:17:32.764Z,0
2023-01-02T16:20:55.886Z,0
2023-01-02T16:21:36.427Z,0
2023-01-02T16:22:17.008Z,0
2023-01-02T16:22:57.597Z,0
2023-01-02T16:23:38.088Z,0
2023-01-02T16:24:18.587Z,0
2023-01-02T16:24:59.104Z,0
2023-01-02T16:25:39.632Z,0
2023-01-02T16:26:20.134Z,0
2023-01-02T16:27:00.649Z,0
2023-01-02T16:33:17.902Z,0
2023-01-02T16:33:59.107Z,0
2023-01-02T16:34:39.591Z,0
2023-01-02T16:35:20.146Z,0
2023-01-02T16:37:33.672Z,0
2023-01-02T16:38:14.218Z,0
2023-01-02T16:38:54.775Z,0
2023-01-02T16:39:35.309Z,0
2023-01-02T16:41:48.436Z,0
2023-01-02T16:42:28.969Z,0
2023-01-02T16:43:12.402Z,0
2023-01-02T16:43:53.884Z,0
2023-01-02T16:44:35.144Z,0
2023-01-02T16:47:13.591Z,0
2023-01-02T16:47:54.119Z,0
2023-01-02T16:48:34.723Z,0
2023-01-02T16:49:15.119Z,0
2023-01-02T16:51:58.768Z,0
2023-01-02T16:52:39.351Z,0
2023-01-02T16:54:54.324Z,0
2023-01-02T16:55:38.480Z,0
2023-01-02T16:56:19.063Z,0
2023-01-02T16:57:00.129Z,0
2023-01-02T16:57:40.663Z,0
2023-01-02T16:58:22.080Z,0
2023-01-02T16:59:02.590Z,0
2023-01-02T17:01:13.597Z,0
2023-01-02T17:03:58.513Z,0
2023-01-02T17:04:40.511Z,0
2023-01-02T17:06:48.498Z,0
2023-01-02T17:07:33.519Z,0
2023-01-02T17:08:18.522Z,0
2023-01-02T17:09:00.533Z,0
2023-01-02T17:09:42.031Z,0
2023-01-02T17:12:32.583Z,0
2023-01-02T17:14:40.123Z,0
2023-01-02T17:15:22.117Z,0
2023-01-02T17:16:03.537Z,0
2023-01-02T17:18:13.118Z,0
2023-01-02T17:21:40.025Z,0
2023-01-02T17:22:21.545Z,0
2023-01-02T17:23:04.048Z,0
2023-01-02T17:24:28.547Z,0
2023-01-02T17:25:13.511Z,0
2023-01-02T17:26:39.508Z,0
2023-01-02T17:27:20.911Z,0
2023-01-02T17:28:01.432Z,0
2023-01-02T17:30:08.311Z,0
2023-01-02T17:30:50.435Z,0
2023-01-02T17:33:03.757Z,0
2023-01-02T17:33:39.050Z,0
2023-01-02T17:34:20.448Z,0
2023-01-02T17:37:50.023Z,0
2023-01-02T17:38:30.571Z,0
2023-01-02T17:39:11.064Z,0
2023-01-02T17:39:55.034Z,0
2023-01-02T17:42:05.164Z,0
2023-01-02T17:42:53.533Z,0
2023-01-02T17:45:00.014Z,0
2023-01-02T17:45:42.299Z,0
2023-01-02T17:49:21.537Z,0
2023-01-02T17:50:02.576Z,0
2023-01-02T17:52:10.349Z,0
2023-01-02T17:52:52.535Z,0
2023-01-02T17:54:19.034Z,0
2023-01-02T17:55:52.034Z,0
2023-01-02T17:57:18.108Z,0
2023-01-02T17:58:00.140Z,0
2023-01-02T18:00:48.109Z,0
2023-01-02T18:01:28.738Z,0
2023-01-02T18:02:10.979Z,0
2023-01-02T18:02:52.119Z,0
2023-01-02T18:04:57.623Z,0
2023-01-02T18:05:39.053Z,0
2023-01-02T18:06:20.231Z,0
2023-01-02T18:07:01.393Z,0
2023-01-02T18:09:43.925Z,0